sensor_id;sensor_type;location;lat;lon;timestamp;pressure;altitude;pressure_sealevel;temperature;humidity
41684;BME280;27369;52.030;4.586;2023-08-24T00:00:08;-20807.34;;;-144.41;100.00
41684;BME280;27369;52.030;4.586;2023-08-24T00:02:34;-20807.34;;;-144.41;100.00
41684;BME280;27369;52.030;4.586;2023-08-24T00:04:59;-20807.34;;;-144.41;100.00
41684;BME280;27369;52.030;4.586;2023-08-24T00:07:25;-20807.34;;;-144.41;100.00
41684;BME280;27369;52.030;4.586;2023-08-24T00:09:52;-20807.34;;;-144.41;100.00
41684;BME280;27369;52.030;4.586;2023-08-24T00:12:17;-20807.34;;;-144.41;100.00
41684;BME280;27369;52.030;4.586;2023-08-24T00:14:43;-20807.34;;;-144.41;100.00
41684;BME280;27369;52.030;4.586;2023-08-24T00:17:08;-20807.34;;;-144.41;100.00
41684;BME280;27369;52.030;4.586;2023-08-24T00:19:33;-20807.34;;;-144.41;100.00
41684;BME280;27369;52.030;4.586;2023-08-24T00:21:59;-20807.34;;;-144.41;100.00
41684;BME280;27369;52.030;4.586;2023-08-24T00:24:24;-20807.34;;;-144.41;100.00
41684;BME280;27369;52.030;4.586;2023-08-24T00:26:49;-20807.34;;;-144.41;100.00
41684;BME280;27369;52.030;4.586;2023-08-24T00:29:15;-20807.34;;;-144.41;100.00
41684;BME280;27369;52.030;4.586;2023-08-24T00:31:40;-20807.34;;;-144.41;100.00
41684;BME280;27369;52.030;4.586;2023-08-24T00:34:06;-20807.34;;;-144.41;100.00
41684;BME280;27369;52.030;4.586;2023-08-24T00:36:31;-20807.34;;;-144.41;100.00
41684;BME280;27369;52.030;4.586;2023-08-24T00:38:56;-20807.34;;;-144.41;100.00
41684;BME280;27369;52.030;4.586;2023-08-24T00:41:22;-20807.34;;;-144.41;100.00
41684;BME280;27369;52.030;4.586;2023-08-24T00:43:47;-20807.34;;;-144.41;100.00
41684;BME280;27369;52.030;4.586;2023-08-24T00:46:15;-20807.34;;;-144.41;100.00
41684;BME280;27369;52.030;4.586;2023-08-24T00:48:40;-20807.34;;;-144.41;100.00
41684;BME280;27369;52.030;4.586;2023-08-24T00:51:05;-20807.34;;;-144.41;100.00
41684;BME280;27369;52.030;4.586;2023-08-24T00:53:31;-20807.34;;;-144.41;100.00
41684;BME280;27369;52.030;4.586;2023-08-24T00:55:56;-20807.34;;;-144.41;100.00
41684;BME280;27369;52.030;4.586;2023-08-24T00:58:22;-20807.34;;;-144.41;100.00
41684;BME280;27369;52.030;4.586;2023-08-24T01:00:52;-20807.34;;;-144.41;100.00
41684;BME280;27369;52.030;4.586;2023-08-24T01:03:17;-20807.34;;;-144.41;100.00
41684;BME280;27369;52.030;4.586;2023-08-24T01:05:44;-20807.34;;;-144.41;100.00
41684;BME280;27369;52.030;4.586;2023-08-24T01:08:09;-20807.34;;;-144.41;100.00
41684;BME280;27369;52.030;4.586;2023-08-24T01:10:38;-20807.34;;;-144.41;100.00
41684;BME280;27369;52.030;4.586;2023-08-24T01:13:09;-20807.34;;;-144.41;100.00
41684;BME280;27369;52.030;4.586;2023-08-24T01:15:43;-20807.34;;;-144.41;100.00
41684;BME280;27369;52.030;4.586;2023-08-24T01:18:11;-20807.34;;;-144.41;100.00
41684;BME280;27369;52.030;4.586;2023-08-24T01:20:38;-20807.34;;;-144.41;100.00
41684;BME280;27369;52.030;4.586;2023-08-24T01:28:29;-20807.34;;;-144.41;100.00
41684;BME280;27369;52.030;4.586;2023-08-24T01:30:55;-20807.34;;;-144.41;100.00
41684;BME280;27369;52.030;4.586;2023-08-24T01:33:21;-20807.34;;;-144.41;100.00
41684;BME280;27369;52.030;4.586;2023-08-24T01:35:46;-20807.34;;;-144.41;100.00
41684;BME280;27369;52.030;4.586;2023-08-24T01:38:11;-20807.34;;;-144.41;100.00
41684;BME280;27369;52.030;4.586;2023-08-24T01:43:24;-20807.34;;;-144.41;100.00
41684;BME280;27369;52.030;4.586;2023-08-24T01:45:50;-20807.34;;;-144.41;100.00
41684;BME280;27369;52.030;4.586;2023-08-24T01:48:17;-20807.34;;;-144.41;100.00
41684;BME280;27369;52.030;4.586;2023-08-24T01:50:42;-20807.34;;;-144.41;100.00
41684;BME280;27369;52.030;4.586;2023-08-24T01:53:08;-20807.34;;;-144.41;100.00
41684;BME280;27369;52.030;4.586;2023-08-24T01:55:33;-20807.34;;;-144.41;100.00
41684;BME280;27369;52.030;4.586;2023-08-24T01:57:59;-20807.34;;;-144.41;100.00
41684;BME280;27369;52.030;4.586;2023-08-24T02:00:25;-20807.34;;;-144.41;100.00
41684;BME280;27369;52.030;4.586;2023-08-24T02:02:50;-20807.34;;;-144.41;100.00
41684;BME280;27369;52.030;4.586;2023-08-24T02:05:15;-20807.34;;;-144.41;100.00
41684;BME280;27369;52.030;4.586;2023-08-24T02:07:40;-20807.34;;;-144.41;100.00
41684;BME280;27369;52.030;4.586;2023-08-24T02:10:06;-20807.34;;;-144.41;100.00
41684;BME280;27369;52.030;4.586;2023-08-24T02:12:31;-20807.34;;;-144.41;100.00
41684;BME280;27369;52.030;4.586;2023-08-24T02:14:57;-20807.34;;;-144.41;100.00
41684;BME280;27369;52.030;4.586;2023-08-24T02:17:22;-20807.34;;;-144.41;100.00
41684;BME280;27369;52.030;4.586;2023-08-24T02:19:47;-20807.34;;;-144.41;100.00
41684;BME280;27369;52.030;4.586;2023-08-24T02:22:12;-20807.34;;;-144.41;100.00
41684;BME280;27369;52.030;4.586;2023-08-24T02:24:38;-20807.34;;;-144.41;100.00
41684;BME280;27369;52.030;4.586;2023-08-24T02:27:04;-20807.34;;;-144.41;100.00
41684;BME280;27369;52.030;4.586;2023-08-24T02:29:29;-20807.34;;;-144.41;100.00
41684;BME280;27369;52.030;4.586;2023-08-24T02:31:55;-20807.34;;;-144.41;100.00
41684;BME280;27369;52.030;4.586;2023-08-24T02:34:20;-20807.34;;;-144.41;100.00
41684;BME280;27369;52.030;4.586;2023-08-24T02:36:45;-20807.34;;;-144.41;100.00
41684;BME280;27369;52.030;4.586;2023-08-24T02:39:11;-20807.34;;;-144.41;100.00
41684;BME280;27369;52.030;4.586;2023-08-24T02:41:36;-20807.34;;;-144.41;100.00
41684;BME280;27369;52.030;4.586;2023-08-24T02:44:02;-20807.34;;;-144.41;100.00
41684;BME280;27369;52.030;4.586;2023-08-24T02:46:27;-20807.34;;;-144.41;100.00
41684;BME280;27369;52.030;4.586;2023-08-24T02:48:53;-20807.34;;;-144.41;100.00
41684;BME280;27369;52.030;4.586;2023-08-24T02:51:20;-20807.34;;;-144.41;100.00
41684;BME280;27369;52.030;4.586;2023-08-24T02:53:46;-20807.34;;;-144.41;100.00
41684;BME280;27369;52.030;4.586;2023-08-24T02:56:11;-20807.34;;;-144.41;100.00
41684;BME280;27369;52.030;4.586;2023-08-24T02:58:36;-20807.34;;;-144.41;100.00
41684;BME280;27369;52.030;4.586;2023-08-24T03:01:05;-20807.34;;;-144.41;100.00
41684;BME280;27369;52.030;4.586;2023-08-24T03:03:32;-20807.34;;;-144.41;100.00
41684;BME280;27369;52.030;4.586;2023-08-24T03:05:58;-20807.34;;;-144.41;100.00
41684;BME280;27369;52.030;4.586;2023-08-24T03:08:24;-20807.34;;;-144.41;100.00
41684;BME280;27369;52.030;4.586;2023-08-24T03:10:49;-20807.34;;;-144.41;100.00
41684;BME280;27369;52.030;4.586;2023-08-24T03:13:14;-20807.34;;;-144.41;100.00
41684;BME280;27369;52.030;4.586;2023-08-24T03:15:40;-20807.34;;;-144.41;100.00
41684;BME280;27369;52.030;4.586;2023-08-24T03:18:05;-20807.34;;;-144.41;100.00
41684;BME280;27369;52.030;4.586;2023-08-24T03:20:30;-20807.34;;;-144.41;100.00
41684;BME280;27369;52.030;4.586;2023-08-24T03:22:56;-20807.34;;;-144.41;100.00
41684;BME280;27369;52.030;4.586;2023-08-24T03:25:22;-20807.34;;;-144.41;100.00
41684;BME280;27369;52.030;4.586;2023-08-24T03:27:47;-20807.34;;;-144.41;100.00
41684;BME280;27369;52.030;4.586;2023-08-24T03:30:13;-20807.34;;;-144.41;100.00
41684;BME280;27369;52.030;4.586;2023-08-24T03:32:41;-20807.34;;;-144.41;100.00
41684;BME280;27369;52.030;4.586;2023-08-24T03:35:07;-20807.34;;;-144.41;100.00
41684;BME280;27369;52.030;4.586;2023-08-24T03:37:32;-20807.34;;;-144.41;100.00
41684;BME280;27369;52.030;4.586;2023-08-24T03:39:57;-20807.34;;;-144.41;100.00
41684;BME280;27369;52.030;4.586;2023-08-24T03:42:23;-20807.34;;;-144.41;100.00
41684;BME280;27369;52.030;4.586;2023-08-24T03:44:48;-20807.34;;;-144.41;100.00
41684;BME280;27369;52.030;4.586;2023-08-24T03:47:13;-20807.34;;;-144.41;100.00
41684;BME280;27369;52.030;4.586;2023-08-24T03:49:41;-20807.34;;;-144.41;100.00
41684;BME280;27369;52.030;4.586;2023-08-24T03:52:06;-20807.34;;;-144.41;100.00
41684;BME280;27369;52.030;4.586;2023-08-24T03:54:32;-20807.34;;;-144.41;100.00
41684;BME280;27369;52.030;4.586;2023-08-24T03:56:57;-20807.34;;;-144.41;100.00
41684;BME280;27369;52.030;4.586;2023-08-24T03:59:22;-20807.34;;;-144.41;100.00
41684;BME280;27369;52.030;4.586;2023-08-24T04:01:47;-20807.34;;;-144.41;100.00
41684;BME280;27369;52.030;4.586;2023-08-24T04:04:13;-20807.34;;;-144.41;100.00
41684;BME280;27369;52.030;4.586;2023-08-24T04:06:38;-20807.34;;;-144.41;100.00
41684;BME280;27369;52.030;4.586;2023-08-24T04:09:05;-20807.34;;;-144.41;100.00
41684;BME280;27369;52.030;4.586;2023-08-24T04:11:31;-20807.34;;;-144.41;100.00
41684;BME280;27369;52.030;4.586;2023-08-24T04:14:26;-20807.34;;;-144.41;100.00
41684;BME280;27369;52.030;4.586;2023-08-24T04:17:14;-20807.34;;;-144.41;100.00
41684;BME280;27369;52.030;4.586;2023-08-24T04:19:39;-20807.34;;;-144.41;100.00
41684;BME280;27369;52.030;4.586;2023-08-24T04:22:05;-20807.34;;;-144.41;100.00
41684;BME280;27369;52.030;4.586;2023-08-24T04:24:30;-20807.34;;;-144.41;100.00
41684;BME280;27369;52.030;4.586;2023-08-24T04:26:55;-20807.34;;;-144.41;100.00
41684;BME280;27369;52.030;4.586;2023-08-24T04:32:21;-20807.34;;;-144.41;100.00
41684;BME280;27369;52.030;4.586;2023-08-24T04:34:47;-20807.34;;;-144.41;100.00
41684;BME280;27369;52.030;4.586;2023-08-24T04:37:12;-20807.34;;;-144.41;100.00
41684;BME280;27369;52.030;4.586;2023-08-24T04:39:37;-20807.34;;;-144.41;100.00
41684;BME280;27369;52.030;4.586;2023-08-24T04:42:02;-20807.34;;;-144.41;100.00
41684;BME280;27369;52.030;4.586;2023-08-24T04:44:28;-20807.34;;;-144.41;100.00
41684;BME280;27369;52.030;4.586;2023-08-24T04:46:53;-20807.34;;;-144.41;100.00
41684;BME280;27369;52.030;4.586;2023-08-24T04:49:18;-20807.34;;;-144.41;100.00
41684;BME280;27369;52.030;4.586;2023-08-24T04:51:44;-20807.34;;;-144.41;100.00
41684;BME280;27369;52.030;4.586;2023-08-24T04:54:09;-20807.34;;;-144.41;100.00
41684;BME280;27369;52.030;4.586;2023-08-24T04:56:35;-20807.34;;;-144.41;100.00
41684;BME280;27369;52.030;4.586;2023-08-24T04:59:00;-20807.34;;;-144.41;100.00
41684;BME280;27369;52.030;4.586;2023-08-24T05:01:27;-20732.03;;;-144.41;100.00
41684;BME280;27369;52.030;4.586;2023-08-24T05:03:52;-20289.03;;;-144.41;100.00
41684;BME280;27369;52.030;4.586;2023-08-24T05:06:18;-20318.19;;;-144.41;100.00
41684;BME280;27369;52.030;4.586;2023-08-24T05:08:44;-20250.16;;;-144.41;100.00
41684;BME280;27369;52.030;4.586;2023-08-24T05:11:10;-20257.94;;;-144.41;100.00
41684;BME280;27369;52.030;4.586;2023-08-24T05:13:35;-20294.88;;;-144.41;100.00
41684;BME280;27369;52.030;4.586;2023-08-24T05:16:01;-20339.56;;;-144.41;100.00
41684;BME280;27369;52.030;4.586;2023-08-24T05:18:26;-20495.00;;;-144.41;100.00
41684;BME280;27369;52.030;4.586;2023-08-24T05:20:51;-20601.88;;;-144.41;100.00
41684;BME280;27369;52.030;4.586;2023-08-24T05:23:17;-20749.53;;;-144.41;100.00
41684;BME280;27369;52.030;4.586;2023-08-24T05:25:42;-20807.34;;;-144.41;100.00
41684;BME280;27369;52.030;4.586;2023-08-24T05:28:08;-20807.34;;;-144.41;100.00
41684;BME280;27369;52.030;4.586;2023-08-24T05:30:51;-20807.34;;;-144.41;100.00
41684;BME280;27369;52.030;4.586;2023-08-24T05:33:21;-20807.34;;;-144.41;100.00
41684;BME280;27369;52.030;4.586;2023-08-24T05:35:47;-20807.34;;;-144.41;100.00
41684;BME280;27369;52.030;4.586;2023-08-24T05:38:12;-20807.34;;;-144.41;100.00
41684;BME280;27369;52.030;4.586;2023-08-24T05:40:38;-20807.34;;;-144.41;100.00
41684;BME280;27369;52.030;4.586;2023-08-24T05:43:04;-20807.34;;;-144.41;100.00
41684;BME280;27369;52.030;4.586;2023-08-24T05:45:29;-20807.34;;;-144.41;100.00
41684;BME280;27369;52.030;4.586;2023-08-24T05:47:54;-20807.34;;;-144.41;100.00
41684;BME280;27369;52.030;4.586;2023-08-24T05:50:20;-20807.34;;;-144.41;100.00
41684;BME280;27369;52.030;4.586;2023-08-24T05:52:45;-20807.34;;;-144.41;100.00
41684;BME280;27369;52.030;4.586;2023-08-24T05:55:10;-20807.34;;;-144.41;100.00
41684;BME280;27369;52.030;4.586;2023-08-24T05:57:35;-20807.34;;;-144.41;100.00
41684;BME280;27369;52.030;4.586;2023-08-24T06:00:01;-20807.34;;;-144.41;100.00
41684;BME280;27369;52.030;4.586;2023-08-24T06:02:26;-20807.34;;;-144.41;100.00
41684;BME280;27369;52.030;4.586;2023-08-24T06:04:52;-20807.34;;;-144.41;100.00
41684;BME280;27369;52.030;4.586;2023-08-24T06:07:17;-20807.34;;;-144.41;100.00
41684;BME280;27369;52.030;4.586;2023-08-24T06:09:43;-20807.34;;;-144.41;100.00
41684;BME280;27369;52.030;4.586;2023-08-24T06:12:08;-20807.34;;;-144.41;100.00
41684;BME280;27369;52.030;4.586;2023-08-24T06:14:34;-20807.34;;;-144.41;100.00
41684;BME280;27369;52.030;4.586;2023-08-24T06:16:59;-20807.34;;;-144.41;100.00
41684;BME280;27369;52.030;4.586;2023-08-24T06:19:24;-20807.34;;;-144.41;100.00
41684;BME280;27369;52.030;4.586;2023-08-24T06:21:50;-20807.34;;;-144.41;100.00
41684;BME280;27369;52.030;4.586;2023-08-24T06:24:15;-20807.34;;;-144.41;100.00
41684;BME280;27369;52.030;4.586;2023-08-24T06:26:40;-20807.34;;;-144.41;100.00
41684;BME280;27369;52.030;4.586;2023-08-24T06:29:06;-20807.34;;;-144.41;100.00
41684;BME280;27369;52.030;4.586;2023-08-24T06:31:31;-20807.34;;;-144.41;100.00
41684;BME280;27369;52.030;4.586;2023-08-24T06:33:58;-20807.34;;;-144.41;100.00
41684;BME280;27369;52.030;4.586;2023-08-24T06:36:23;-20807.34;;;-144.41;100.00
41684;BME280;27369;52.030;4.586;2023-08-24T06:38:48;-20807.34;;;-144.41;100.00
41684;BME280;27369;52.030;4.586;2023-08-24T06:41:13;-20807.34;;;-144.41;100.00
41684;BME280;27369;52.030;4.586;2023-08-24T06:43:55;-20807.34;;;-144.41;100.00
41684;BME280;27369;52.030;4.586;2023-08-24T06:46:26;-20807.34;;;-144.41;100.00
41684;BME280;27369;52.030;4.586;2023-08-24T06:48:51;-20807.34;;;-144.41;100.00
41684;BME280;27369;52.030;4.586;2023-08-24T06:51:16;-20807.34;;;-144.41;100.00
41684;BME280;27369;52.030;4.586;2023-08-24T06:53:42;-20807.34;;;-144.41;100.00
41684;BME280;27369;52.030;4.586;2023-08-24T06:56:07;-20807.34;;;-144.41;100.00
41684;BME280;27369;52.030;4.586;2023-08-24T06:58:34;-20807.34;;;-144.41;100.00
41684;BME280;27369;52.030;4.586;2023-08-24T07:00:59;-20807.34;;;-144.41;100.00
41684;BME280;27369;52.030;4.586;2023-08-24T07:03:24;-20807.34;;;-144.41;100.00
41684;BME280;27369;52.030;4.586;2023-08-24T07:05:49;-20807.34;;;-144.41;100.00
41684;BME280;27369;52.030;4.586;2023-08-24T07:08:15;-20807.34;;;-144.41;100.00
41684;BME280;27369;52.030;4.586;2023-08-24T07:10:40;-20807.34;;;-144.41;100.00
41684;BME280;27369;52.030;4.586;2023-08-24T07:13:06;-20807.34;;;-144.41;100.00
41684;BME280;27369;52.030;4.586;2023-08-24T07:15:32;-20807.34;;;-144.41;100.00
41684;BME280;27369;52.030;4.586;2023-08-24T07:19:07;-20807.34;;;-144.41;100.00
41684;BME280;27369;52.030;4.586;2023-08-24T07:21:33;-20807.34;;;-144.41;100.00
41684;BME280;27369;52.030;4.586;2023-08-24T07:23:59;-20807.34;;;-144.41;100.00
41684;BME280;27369;52.030;4.586;2023-08-24T07:26:24;-20807.34;;;-144.41;100.00
41684;BME280;27369;52.030;4.586;2023-08-24T07:28:51;-20807.34;;;-144.41;100.00
41684;BME280;27369;52.030;4.586;2023-08-24T07:31:16;-20807.34;;;-144.41;100.00
41684;BME280;27369;52.030;4.586;2023-08-24T07:33:42;-20807.34;;;-144.41;100.00
41684;BME280;27369;52.030;4.586;2023-08-24T07:36:10;-20807.34;;;-144.41;100.00
41684;BME280;27369;52.030;4.586;2023-08-24T07:38:36;-20807.34;;;-144.41;100.00
41684;BME280;27369;52.030;4.586;2023-08-24T07:41:01;-20807.34;;;-144.41;100.00
41684;BME280;27369;52.030;4.586;2023-08-24T07:43:26;-20807.34;;;-144.41;100.00
41684;BME280;27369;52.030;4.586;2023-08-24T07:45:52;-20807.34;;;-144.41;100.00
41684;BME280;27369;52.030;4.586;2023-08-24T07:48:17;-20807.34;;;-144.41;100.00
41684;BME280;27369;52.030;4.586;2023-08-24T07:50:43;-20807.34;;;-144.41;100.00
41684;BME280;27369;52.030;4.586;2023-08-24T07:53:08;-20807.34;;;-144.41;100.00
41684;BME280;27369;52.030;4.586;2023-08-24T07:55:34;-20807.34;;;-144.41;100.00
41684;BME280;27369;52.030;4.586;2023-08-24T07:57:59;-20807.34;;;-144.41;100.00
41684;BME280;27369;52.030;4.586;2023-08-24T08:00:25;-20807.34;;;-144.41;100.00
41684;BME280;27369;52.030;4.586;2023-08-24T08:02:51;-20807.34;;;-144.41;100.00
41684;BME280;27369;52.030;4.586;2023-08-24T08:05:17;-20807.34;;;-144.41;100.00
41684;BME280;27369;52.030;4.586;2023-08-24T08:07:43;-20807.34;;;-144.41;100.00
41684;BME280;27369;52.030;4.586;2023-08-24T08:10:08;-20807.34;;;-144.41;100.00
41684;BME280;27369;52.030;4.586;2023-08-24T08:12:35;-20807.34;;;-144.41;100.00
41684;BME280;27369;52.030;4.586;2023-08-24T08:15:00;-20807.34;;;-144.41;100.00
41684;BME280;27369;52.030;4.586;2023-08-24T08:17:26;-20807.34;;;-144.41;100.00
41684;BME280;27369;52.030;4.586;2023-08-24T08:19:56;-20807.34;;;-144.41;100.00
41684;BME280;27369;52.030;4.586;2023-08-24T08:22:23;-20807.34;;;-144.41;100.00
41684;BME280;27369;52.030;4.586;2023-08-24T08:24:48;-20807.34;;;-144.41;100.00
41684;BME280;27369;52.030;4.586;2023-08-24T08:27:15;-20807.34;;;-144.41;100.00
41684;BME280;27369;52.030;4.586;2023-08-24T08:29:40;-20807.34;;;-144.41;100.00
41684;BME280;27369;52.030;4.586;2023-08-24T08:32:05;-20807.34;;;-144.41;100.00
41684;BME280;27369;52.030;4.586;2023-08-24T08:34:33;-20807.34;;;-144.41;100.00
41684;BME280;27369;52.030;4.586;2023-08-24T08:36:58;-20807.34;;;-144.41;100.00
41684;BME280;27369;52.030;4.586;2023-08-24T08:39:23;-20807.34;;;-144.41;100.00
41684;BME280;27369;52.030;4.586;2023-08-24T08:41:49;-20807.34;;;-144.41;100.00
41684;BME280;27369;52.030;4.586;2023-08-24T08:44:14;-20807.34;;;-144.41;100.00
41684;BME280;27369;52.030;4.586;2023-08-24T08:46:42;-20807.34;;;-144.41;100.00
41684;BME280;27369;52.030;4.586;2023-08-24T08:49:08;-20807.34;;;-144.41;100.00
41684;BME280;27369;52.030;4.586;2023-08-24T08:51:36;-20807.34;;;-144.41;100.00
41684;BME280;27369;52.030;4.586;2023-08-24T08:54:02;-20807.34;;;-144.41;100.00
41684;BME280;27369;52.030;4.586;2023-08-24T08:56:29;-20807.34;;;-144.41;100.00
41684;BME280;27369;52.030;4.586;2023-08-24T08:58:56;-20807.34;;;-144.41;100.00
41684;BME280;27369;52.030;4.586;2023-08-24T09:01:24;-20807.34;;;-144.41;100.00
41684;BME280;27369;52.030;4.586;2023-08-24T09:03:51;-20807.34;;;-144.41;100.00
41684;BME280;27369;52.030;4.586;2023-08-24T09:06:17;-20807.34;;;-144.41;100.00
41684;BME280;27369;52.030;4.586;2023-08-24T09:08:43;-20807.34;;;-144.41;100.00
41684;BME280;27369;52.030;4.586;2023-08-24T09:11:10;-20807.34;;;-144.41;100.00
41684;BME280;27369;52.030;4.586;2023-08-24T09:13:35;-20807.34;;;-144.41;100.00
41684;BME280;27369;52.030;4.586;2023-08-24T09:16:05;-20807.34;;;-144.41;100.00
41684;BME280;27369;52.030;4.586;2023-08-24T09:18:38;-20807.34;;;-144.41;100.00
41684;BME280;27369;52.030;4.586;2023-08-24T09:21:10;-20807.34;;;-144.41;100.00
41684;BME280;27369;52.030;4.586;2023-08-24T09:23:38;-20807.34;;;-144.41;100.00
41684;BME280;27369;52.030;4.586;2023-08-24T09:26:03;-20807.34;;;-144.41;100.00
41684;BME280;27369;52.030;4.586;2023-08-24T09:28:30;-20807.34;;;-144.41;100.00
41684;BME280;27369;52.030;4.586;2023-08-24T09:30:55;-20807.34;;;-144.41;100.00
41684;BME280;27369;52.030;4.586;2023-08-24T09:33:21;-20807.34;;;-144.41;100.00
41684;BME280;27369;52.030;4.586;2023-08-24T09:35:52;-20807.34;;;-144.41;100.00
41684;BME280;27369;52.030;4.586;2023-08-24T09:38:22;-20807.34;;;-144.41;100.00
41684;BME280;27369;52.030;4.586;2023-08-24T09:40:54;-20807.34;;;-144.41;100.00
41684;BME280;27369;52.030;4.586;2023-08-24T09:43:20;-20807.34;;;-144.41;100.00
41684;BME280;27369;52.030;4.586;2023-08-24T09:45:53;-20807.34;;;-144.41;100.00
41684;BME280;27369;52.030;4.586;2023-08-24T09:48:19;-20807.34;;;-144.41;100.00
41684;BME280;27369;52.030;4.586;2023-08-24T09:50:46;-20807.34;;;-144.41;100.00
41684;BME280;27369;52.030;4.586;2023-08-24T09:53:20;-20807.34;;;-144.41;100.00
41684;BME280;27369;52.030;4.586;2023-08-24T09:55:59;-20807.34;;;-144.41;100.00
41684;BME280;27369;52.030;4.586;2023-08-24T09:58:25;-20807.34;;;-144.41;100.00
41684;BME280;27369;52.030;4.586;2023-08-24T10:00:52;-20807.34;;;-144.41;100.00
41684;BME280;27369;52.030;4.586;2023-08-24T10:03:19;-20807.34;;;-144.41;100.00
41684;BME280;27369;52.030;4.586;2023-08-24T10:05:51;-20807.34;;;-144.41;100.00
41684;BME280;27369;52.030;4.586;2023-08-24T10:08:47;-20807.34;;;-144.41;100.00
41684;BME280;27369;52.030;4.586;2023-08-24T10:11:17;-20807.34;;;-144.41;100.00
41684;BME280;27369;52.030;4.586;2023-08-24T10:14:04;-20807.34;;;-144.41;100.00
41684;BME280;27369;52.030;4.586;2023-08-24T10:16:33;-20807.34;;;-144.41;100.00
41684;BME280;27369;52.030;4.586;2023-08-24T10:19:01;-20807.34;;;-144.41;100.00
41684;BME280;27369;52.030;4.586;2023-08-24T10:21:28;-20807.34;;;-144.41;100.00
41684;BME280;27369;52.030;4.586;2023-08-24T10:23:56;-20807.34;;;-144.41;100.00
41684;BME280;27369;52.030;4.586;2023-08-24T10:26:23;-20807.34;;;-144.41;100.00
41684;BME280;27369;52.030;4.586;2023-08-24T10:28:50;-20807.34;;;-144.41;100.00
41684;BME280;27369;52.030;4.586;2023-08-24T10:31:15;-20807.34;;;-144.41;100.00
41684;BME280;27369;52.030;4.586;2023-08-24T10:33:41;-20807.34;;;-144.41;100.00
41684;BME280;27369;52.030;4.586;2023-08-24T10:36:09;-20807.34;;;-144.41;100.00
41684;BME280;27369;52.030;4.586;2023-08-24T10:38:40;-20807.34;;;-144.41;100.00
41684;BME280;27369;52.030;4.586;2023-08-24T10:41:08;-20807.34;;;-144.41;100.00
41684;BME280;27369;52.030;4.586;2023-08-24T10:43:37;-20807.34;;;-144.41;100.00
41684;BME280;27369;52.030;4.586;2023-08-24T10:46:03;-20807.34;;;-144.41;100.00
41684;BME280;27369;52.030;4.586;2023-08-24T10:48:57;-20807.34;;;-144.41;100.00
41684;BME280;27369;52.030;4.586;2023-08-24T10:51:24;-20807.34;;;-144.41;100.00
41684;BME280;27369;52.030;4.586;2023-08-24T10:53:59;-20807.34;;;-144.41;100.00
41684;BME280;27369;52.030;4.586;2023-08-24T10:56:36;-20807.34;;;-144.41;100.00
41684;BME280;27369;52.030;4.586;2023-08-24T10:59:13;-20807.34;;;-144.41;100.00
41684;BME280;27369;52.030;4.586;2023-08-24T11:01:43;-20807.34;;;-144.41;100.00
41684;BME280;27369;52.030;4.586;2023-08-24T11:04:19;-20807.34;;;-144.41;100.00
41684;BME280;27369;52.030;4.586;2023-08-24T11:06:55;-20807.34;;;-144.41;100.00
41684;BME280;27369;52.030;4.586;2023-08-24T11:09:23;-20807.34;;;-144.41;100.00
41684;BME280;27369;52.030;4.586;2023-08-24T11:11:59;-20807.34;;;-144.41;100.00
41684;BME280;27369;52.030;4.586;2023-08-24T11:14:25;-20807.34;;;-144.41;100.00
41684;BME280;27369;52.030;4.586;2023-08-24T11:16:52;-20807.34;;;-144.41;100.00
41684;BME280;27369;52.030;4.586;2023-08-24T11:19:18;-20807.34;;;-144.41;100.00
41684;BME280;27369;52.030;4.586;2023-08-24T11:21:45;-20807.34;;;-144.41;100.00
41684;BME280;27369;52.030;4.586;2023-08-24T11:24:12;-20807.34;;;-144.41;100.00
41684;BME280;27369;52.030;4.586;2023-08-24T11:26:46;-20807.34;;;-144.41;100.00
41684;BME280;27369;52.030;4.586;2023-08-24T11:29:13;-20807.34;;;-144.41;100.00
41684;BME280;27369;52.030;4.586;2023-08-24T11:31:39;-20807.34;;;-144.41;100.00
41684;BME280;27369;52.030;4.586;2023-08-24T11:34:05;-20807.34;;;-144.41;100.00
41684;BME280;27369;52.030;4.586;2023-08-24T11:36:45;-20807.34;;;-144.41;100.00
41684;BME280;27369;52.030;4.586;2023-08-24T11:39:19;-20807.34;;;-144.41;100.00
41684;BME280;27369;52.030;4.586;2023-08-24T11:41:59;-20807.34;;;-144.41;100.00
41684;BME280;27369;52.030;4.586;2023-08-24T11:44:45;-20807.34;;;-144.41;100.00
41684;BME280;27369;52.030;4.586;2023-08-24T11:47:11;-20807.34;;;-144.41;100.00
41684;BME280;27369;52.030;4.586;2023-08-24T11:49:37;-20807.34;;;-144.41;100.00
41684;BME280;27369;52.030;4.586;2023-08-24T11:52:03;-20807.34;;;-144.41;100.00
41684;BME280;27369;52.030;4.586;2023-08-24T11:54:32;-20807.34;;;-144.41;100.00
41684;BME280;27369;52.030;4.586;2023-08-24T11:56:57;-20807.34;;;-144.41;100.00
41684;BME280;27369;52.030;4.586;2023-08-24T11:59:23;-20807.34;;;-144.41;100.00
41684;BME280;27369;52.030;4.586;2023-08-24T12:01:49;-20807.34;;;-144.41;100.00
41684;BME280;27369;52.030;4.586;2023-08-24T12:04:14;-20807.34;;;-144.41;100.00
41684;BME280;27369;52.030;4.586;2023-08-24T12:06:40;-20807.34;;;-144.41;100.00
41684;BME280;27369;52.030;4.586;2023-08-24T12:09:05;-20807.34;;;-144.41;100.00
41684;BME280;27369;52.030;4.586;2023-08-24T12:11:35;-20807.34;;;-144.41;100.00
41684;BME280;27369;52.030;4.586;2023-08-24T12:14:01;-20807.34;;;-144.41;100.00
41684;BME280;27369;52.030;4.586;2023-08-24T12:16:26;-20807.34;;;-144.41;100.00
41684;BME280;27369;52.030;4.586;2023-08-24T12:18:57;-20807.34;;;-144.41;100.00
41684;BME280;27369;52.030;4.586;2023-08-24T12:21:25;-20807.34;;;-144.41;100.00
41684;BME280;27369;52.030;4.586;2023-08-24T12:24:01;-20807.34;;;-144.41;100.00
41684;BME280;27369;52.030;4.586;2023-08-24T12:26:31;-20807.34;;;-144.41;100.00
41684;BME280;27369;52.030;4.586;2023-08-24T12:29:04;-20807.34;;;-144.41;100.00
41684;BME280;27369;52.030;4.586;2023-08-24T12:31:32;-20807.34;;;-144.41;100.00